Time;durP1;ratioP1;P1;durP2;ratioP2;P2;SDS_P1;SDS_P2;PMS_P1;PMS_P2;Temp;Humidity;BMP_temperature;BMP_pressure;BME280_temperature;BME280_humidity;BME280_pressure;Samples;Min_cycle;Max_cycle;Signal;HPM_P1;HPM_P2
2021/06/18 00:00:57;;;;;;;10.52;2.80;;;;;;;16.98;48.69;100242.38;4938638;28;20056;-64
2021/06/18 00:03:24;;;;;;;17.33;3.30;;;;;;;16.97;48.59;100244.34;4922847;29;20060;-65
2021/06/18 00:05:51;;;;;;;10.15;2.78;;;;;;;17.03;48.36;100249.78;4919268;29;20139;-65
2021/06/18 00:08:17;;;;;;;13.10;2.60;;;;;;;17.05;48.45;100251.13;4921860;29;20091;-64
2021/06/18 00:10:43;;;;;;;11.43;2.45;;;;;;;17.07;48.11;100253.53;4923377;29;20574;-66
2021/06/18 00:13:09;;;;;;;11.80;3.47;;;;;;;17.02;48.43;100257.25;4921816;29;20078;-65
2021/06/18 00:15:36;;;;;;;17.52;3.67;;;;;;;16.99;48.86;100263.38;4922819;29;20539;-65
2021/06/18 00:18:04;;;;;;;8.90;3.03;;;;;;;16.95;48.97;100259.56;4923233;28;20704;-65
2021/06/18 00:20:30;;;;;;;16.73;3.17;;;;;;;16.95;48.64;100263.16;4923354;29;20311;-65
2021/06/18 00:22:57;;;;;;;12.55;3.63;;;;;;;16.95;48.56;100260.41;4922085;29;20055;-66
2021/06/18 00:25:23;;;;;;;10.27;3.03;;;;;;;16.93;48.83;100261.81;4923923;29;20126;-66
2021/06/18 00:27:52;;;;;;;16.17;2.90;;;;;;;16.92;48.74;100269.28;4921465;29;20044;-65
2021/06/18 00:30:19;;;;;;;11.57;3.15;;;;;;;16.92;48.61;100265.72;4938493;29;20661;-65
2021/06/18 00:32:45;;;;;;;12.25;3.30;;;;;;;16.90;49.00;100273.47;4923727;29;20136;-65
2021/06/18 00:35:13;;;;;;;16.40;3.58;;;;;;;16.90;48.88;100277.03;4922531;29;20060;-65
2021/06/18 00:37:41;;;;;;;14.65;3.28;;;;;;;16.92;48.91;100285.84;4923310;29;20079;-66
2021/06/18 00:40:08;;;;;;;11.55;3.60;;;;;;;16.92;48.90;100283.06;4923304;29;20043;-65
2021/06/18 00:42:35;;;;;;;14.20;3.53;;;;;;;16.94;48.88;100291.06;4923497;29;20540;-66
2021/06/18 00:45:01;;;;;;;10.10;2.78;;;;;;;16.91;48.94;100289.72;4922965;29;20477;-64
2021/06/18 00:47:28;;;;;;;10.50;3.33;;;;;;;16.94;48.71;100296.59;4921581;29;20048;-65
2021/06/18 00:49:55;;;;;;;12.60;2.92;;;;;;;16.91;48.79;100295.25;4921013;29;20055;-65
2021/06/18 00:52:24;;;;;;;13.43;3.23;;;;;;;16.97;48.74;100296.81;4919137;29;20066;-63
2021/06/18 00:54:51;;;;;;;18.45;3.75;;;;;;;16.97;49.06;100291.28;4921995;29;20316;-65
2021/06/18 00:57:18;;;;;;;18.48;3.80;;;;;;;16.97;49.04;100290.44;4922729;29;20139;-66
2021/06/18 00:59:44;;;;;;;15.13;4.82;;;;;;;17.00;49.22;100301.75;4928617;29;20044;-67
2021/06/18 01:02:11;;;;;;;22.15;4.70;;;;;;;16.97;49.47;100291.28;4921223;29;20102;-64
2021/06/18 01:04:38;;;;;;;23.80;6.33;;;;;;;16.98;49.32;100298.44;4920545;29;20062;-66
2021/06/18 01:07:07;;;;;;;25.05;7.65;;;;;;;16.98;49.74;100292.09;4921128;29;20449;-64
2021/06/18 01:09:44;;;;;;;25.17;8.70;;;;;;;17.00;49.67;100298.97;4922370;29;20126;-66
2021/06/18 01:12:16;;;;;;;26.98;9.75;;;;;;;17.03;49.89;100305.84;4920756;29;20138;-63
2021/06/18 01:14:51;;;;;;;36.88;10.95;;;;;;;17.01;49.90;100300.63;4922235;29;20104;-65
2021/06/18 01:17:20;;;;;;;31.65;10.60;;;;;;;17.04;49.83;100306.66;4920997;29;20050;-66
2021/06/18 01:20:09;;;;;;;33.83;10.70;;;;;;;17.05;49.69;100300.00;4919708;29;20051;-65
2021/06/18 01:22:37;;;;;;;32.40;10.55;;;;;;;17.07;49.26;100297.75;4923219;29;20054;-64
2021/06/18 01:25:14;;;;;;;38.35;11.68;;;;;;;17.11;49.36;100296.03;4922138;29;20066;-65
2021/06/18 01:27:44;;;;;;;37.00;11.85;;;;;;;17.12;49.43;100295.69;4923391;29;20060;-65
2021/06/18 01:30:13;;;;;;;37.25;12.13;;;;;;;17.14;49.31;100298.16;4906681;29;20043;-66
2021/06/18 01:32:43;;;;;;;36.78;10.88;;;;;;;17.18;49.53;100299.19;4921341;29;20048;-66
2021/06/18 01:35:13;;;;;;;40.75;11.02;;;;;;;17.21;49.43;100301.31;4922005;29;20047;-64
2021/06/18 01:37:43;;;;;;;29.48;12.25;;;;;;;17.26;49.48;100306.78;4921335;29;20055;-64
2021/06/18 01:40:11;;;;;;;35.30;13.88;;;;;;;17.37;49.18;100304.59;4922246;29;20398;-64
2021/06/18 01:42:41;;;;;;;36.25;12.32;;;;;;;17.51;48.69;100301.00;4923199;29;20048;-64
2021/06/18 01:45:11;;;;;;;28.42;11.40;;;;;;;17.67;48.68;100304.25;4923523;29;20052;-65
2021/06/18 01:47:42;;;;;;;28.38;10.13;;;;;;;17.75;48.15;100314.59;4922115;29;20052;-64
2021/06/18 01:50:11;;;;;;;33.08;11.52;;;;;;;17.83;48.06;100321.31;4922896;29;20639;-65
2021/06/18 01:52:41;;;;;;;30.52;11.50;;;;;;;17.90;47.89;100321.69;4922543;29;20044;-66
2021/06/18 01:55:09;;;;;;;33.20;13.77;;;;;;;17.83;48.36;100324.09;4929619;29;20075;-65
2021/06/18 01:57:39;;;;;;;40.55;14.07;;;;;;;17.82;48.21;100327.97;4920889;29;20044;-66
2021/06/18 02:00:07;;;;;;;40.35;15.25;;;;;;;17.76;48.32;100326.44;4936850;29;20052;-65
2021/06/18 02:02:43;;;;;;;59.13;22.45;;;;;;;17.82;48.50;100331.56;4927224;28;20401;-65
2021/06/18 02:05:11;;;;;;;53.17;21.85;;;;;;;17.87;47.85;100344.44;4924622;29;20448;-65
2021/06/18 02:07:39;;;;;;;50.88;19.88;;;;;;;17.91;47.79;100339.94;4925638;29;20055;-64
2021/06/18 02:10:08;;;;;;;47.20;18.35;;;;;;;17.89;47.98;100313.72;4924150;29;20461;-65
2021/06/18 02:12:36;;;;;;;38.30;12.20;;;;;;;18.11;47.46;100338.69;4924661;29;20067;-64
2021/06/18 02:15:05;;;;;;;39.58;10.55;;;;;;;18.17;47.47;100341.31;4925162;29;20068;-64
2021/06/18 02:17:33;;;;;;;30.58;9.02;;;;;;;18.12;47.21;100345.03;4925538;29;20044;-64
2021/06/18 02:20:04;;;;;;;27.80;7.60;;;;;;;18.08;47.15;100336.53;4924632;29;20433;-64
2021/06/18 02:22:30;;;;;;;29.73;6.50;;;;;;;18.11;46.55;100341.44;4924530;29;20054;-65
2021/06/18 02:24:58;;;;;;;27.42;6.25;;;;;;;18.12;46.75;100351.38;4922937;29;20052;-64
2021/06/18 02:27:25;;;;;;;18.42;6.05;;;;;;;18.19;46.74;100348.19;4931103;29;20047;-65
2021/06/18 02:29:52;;;;;;;19.70;5.60;;;;;;;18.26;46.84;100351.34;4924615;29;20151;-67
2021/06/18 02:32:19;;;;;;;20.00;5.45;;;;;;;18.36;46.91;100353.03;4925581;29;20051;-68
2021/06/18 02:34:45;;;;;;;17.13;5.22;;;;;;;18.49;46.93;100362.41;4925515;29;20059;-67
2021/06/18 02:37:13;;;;;;;21.90;4.43;;;;;;;18.55;46.58;100354.81;4924837;29;20509;-68
2021/06/18 02:39:42;;;;;;;16.55;4.20;;;;;;;18.50;46.35;100338.31;4922391;29;20134;-67
2021/06/18 02:42:10;;;;;;;14.77;3.95;;;;;;;18.73;45.92;100366.00;4924329;29;20405;-67
2021/06/18 02:44:36;;;;;;;;;;;;;;;18.78;45.60;100368.63;4925559;29;20146;-67
2021/06/18 02:47:07;;;;;;;18.52;7.03;;;;;;;18.81;45.93;100374.34;4923009;29;19927;-69
2021/06/18 02:49:41;;;;;;;11.18;3.75;;;;;;;18.81;45.64;100370.75;4929126;29;20346;-66
2021/06/18 02:52:10;;;;;;;18.23;4.03;;;;;;;18.80;45.44;100358.88;4922834;29;20052;-68
2021/06/18 02:54:42;;;;;;;17.80;4.03;;;;;;;18.74;45.15;100357.38;4924660;29;20191;-68
2021/06/18 02:57:15;;;;;;;21.00;3.97;;;;;;;18.95;45.34;100385.34;4923171;29;20081;-67
2021/06/18 02:59:49;;;;;;;13.45;3.60;;;;;;;19.03;45.20;100383.78;4923945;29;20048;-69
2021/06/18 03:02:19;;;;;;;10.57;3.22;;;;;;;19.06;45.38;100383.16;4923310;29;20207;-68
2021/06/18 03:04:47;;;;;;;19.83;4.22;;;;;;;19.07;45.24;100378.41;4925394;29;20143;-67
2021/06/18 03:07:17;;;;;;;11.80;3.15;;;;;;;19.11;45.04;100390.50;4923586;29;20067;-66
2021/06/18 03:09:50;;;;;;;16.40;3.50;;;;;;;19.10;45.29;100386.91;4929326;29;20044;-71
2021/06/18 03:12:20;;;;;;;20.45;2.90;;;;;;;19.11;45.22;100385.78;4922829;29;20055;-68
2021/06/18 03:14:48;;;;;;;13.05;2.90;;;;;;;19.12;45.32;100389.34;4925723;29;20107;-69
2021/06/18 03:17:18;;;;;;;12.57;3.53;;;;;;;19.10;46.14;100384.16;4924877;29;20517;-70
2021/06/18 03:19:49;;;;;;;13.32;3.03;;;;;;;19.13;46.29;100386.28;4925341;29;20390;-69
2021/06/18 03:22:18;;;;;;;18.20;3.80;;;;;;;19.07;46.56;100375.66;4923119;29;20052;-67
2021/06/18 03:24:48;;;;;;;11.70;3.47;;;;;;;19.11;46.69;100383.00;4924320;29;20055;-67
2021/06/18 03:27:17;;;;;;;12.45;3.20;;;;;;;19.12;47.28;100387.41;4924982;29;20045;-68
2021/06/18 03:29:44;;;;;;;11.50;3.20;;;;;;;19.12;47.53;100379.09;4925594;29;20084;-68
2021/06/18 03:32:11;;;;;;;13.43;3.20;;;;;;;19.11;47.53;100369.16;4923975;29;20058;-66
2021/06/18 03:34:38;;;;;;;12.50;3.22;;;;;;;19.15;47.70;100365.75;4924894;29;20095;-67
2021/06/18 03:37:05;;;;;;;13.10;2.88;;;;;;;19.17;48.13;100374.56;4924144;29;20044;-66
2021/06/18 03:39:32;;;;;;;11.43;3.10;;;;;;;19.19;48.42;100367.56;4924132;29;20054;-66
2021/06/18 03:42:01;;;;;;;9.05;2.60;;;;;;;19.21;48.13;100373.59;4922763;29;20059;-66
2021/06/18 03:44:28;;;;;;;10.32;2.42;;;;;;;19.25;47.80;100369.03;4923776;29;20056;-66
2021/06/18 03:46:56;;;;;;;10.00;2.70;;;;;;;19.26;47.94;100370.69;4924546;29;20473;-68
2021/06/18 03:49:25;;;;;;;7.35;2.35;;;;;;;19.29;47.43;100380.31;4924942;29;20047;-68
2021/06/18 03:51:52;;;;;;;6.97;2.60;;;;;;;19.34;47.26;100379.38;4923399;29;20055;-69
2021/06/18 03:54:22;;;;;;;10.27;2.55;;;;;;;19.37;46.96;100382.31;4922182;29;20060;-68
2021/06/18 03:56:49;;;;;;;9.68;2.55;;;;;;;19.40;46.63;100381.69;4924614;28;20502;-67
2021/06/18 03:59:19;;;;;;;7.45;2.50;;;;;;;19.44;46.38;100379.09;4923873;29;20507;-64
2021/06/18 04:01:49;;;;;;;15.25;2.40;;;;;;;19.49;46.02;100386.41;4924770;29;20617;-62
2021/06/18 04:04:17;;;;;;;9.32;2.33;;;;;;;19.53;45.83;100385.47;4923894;29;20147;-63
2021/06/18 04:06:43;;;;;;;9.15;2.22;;;;;;;19.56;45.88;100381.22;4923779;29;20048;-65
2021/06/18 04:09:11;;;;;;;9.75;2.33;;;;;;;19.59;46.19;100390.84;4920939;29;20054;-69
2021/06/18 04:11:38;;;;;;;;;;;;;;;19.63;46.12;100389.09;4922429;29;20047;-66
2021/06/18 04:14:05;;;;;;;;;;;;;;;19.65;46.17;100398.69;4921686;29;19927;-66
2021/06/18 04:16:33;;;;;;;10.95;2.80;;;;;;;19.67;46.47;100396.44;4923597;29;19933;-67
2021/06/18 04:19:01;;;;;;;12.70;2.92;;;;;;;19.70;46.08;100400.50;4922131;29;20048;-63
2021/06/18 04:21:28;;;;;;;9.85;2.70;;;;;;;19.76;45.66;100406.72;4936449;29;20051;-66
2021/06/18 04:23:55;;;;;;;10.57;2.90;;;;;;;19.80;45.89;100404.94;4921747;28;20055;-66
2021/06/18 04:26:23;;;;;;;14.25;3.63;;;;;;;19.82;45.56;100414.59;4922932;29;20394;-66
2021/06/18 04:28:50;;;;;;;12.00;2.63;;;;;;;19.88;45.03;100414.41;4922319;29;20055;-67
2021/06/18 04:31:17;;;;;;;12.30;2.90;;;;;;;19.93;44.85;100411.53;4923053;29;20404;-65
2021/06/18 04:33:45;;;;;;;8.02;2.60;;;;;;;20.00;45.04;100416.63;4922258;29;20055;-64
2021/06/18 04:36:11;;;;;;;13.25;3.83;;;;;;;20.02;44.46;100406.00;4921790;29;20052;-65
2021/06/18 04:38:38;;;;;;;10.68;2.50;;;;;;;20.08;44.64;100413.84;4921720;29;20456;-66
2021/06/18 04:41:04;;;;;;;8.10;2.10;;;;;;;20.14;43.98;100405.38;4937989;28;20150;-65
2021/06/18 04:43:31;;;;;;;11.20;2.20;;;;;;;20.19;43.73;100421.84;4923792;29;20058;-64
2021/06/18 04:45:58;;;;;;;14.65;2.50;;;;;;;20.25;43.88;100410.25;4921924;29;20528;-65
2021/06/18 04:48:27;;;;;;;9.27;2.92;;;;;;;20.28;43.78;100419.91;4920576;29;20130;-64
2021/06/18 04:50:55;;;;;;;15.73;6.75;;;;;;;20.36;44.47;100418.28;4921960;29;20047;-64
2021/06/18 04:53:21;;;;;;;10.55;2.42;;;;;;;20.34;42.92;100417.78;4922125;29;20107;-65
2021/06/18 04:55:48;;;;;;;11.30;2.63;;;;;;;20.42;41.70;100430.03;4923623;29;20047;-69
2021/06/18 04:58:14;;;;;;;8.53;2.20;;;;;;;20.46;41.82;100422.69;4923234;29;20055;-66
2021/06/18 05:00:41;;;;;;;12.07;2.58;;;;;;;20.52;42.20;100424.13;4921708;29;20147;-64
2021/06/18 05:03:07;;;;;;;9.45;2.15;;;;;;;20.54;42.05;100422.69;4922235;29;20047;-65
2021/06/18 05:05:34;;;;;;;9.35;2.40;;;;;;;20.57;41.65;100426.78;4922773;29;20051;-64
2021/06/18 05:08:01;;;;;;;11.20;4.22;;;;;;;20.60;40.97;100425.28;4922741;29;20075;-64
2021/06/18 05:10:28;;;;;;;7.85;2.25;;;;;;;20.66;40.54;100427.56;4921525;29;20091;-65
2021/06/18 05:12:54;;;;;;;11.10;2.00;;;;;;;20.72;41.13;100431.00;4920376;29;20520;-64
2021/06/18 05:15:24;;;;;;;9.35;2.00;;;;;;;20.69;41.05;100429.72;4921347;29;20846;-65
2021/06/18 05:17:51;;;;;;;10.65;2.00;;;;;;;20.76;41.65;100422.84;4921273;29;20071;-68
2021/06/18 05:20:17;;;;;;;19.10;6.30;;;;;;;20.81;41.94;100429.06;4919394;29;20055;-67
2021/06/18 05:22:43;;;;;;;13.55;3.33;;;;;;;20.83;42.34;100410.09;4921434;29;20122;-66
2021/06/18 05:25:13;;;;;;;25.87;9.00;;;;;;;20.94;42.51;100420.88;4921058;29;20047;-67
2021/06/18 05:27:39;;;;;;;10.05;3.58;;;;;;;21.01;42.72;100421.19;4920241;29;20058;-68
2021/06/18 05:30:08;;;;;;;10.23;2.80;;;;;;;21.06;41.83;100421.00;4920314;29;20055;-70
2021/06/18 05:32:34;;;;;;;10.85;3.80;;;;;;;21.09;41.86;100412.00;4925066;29;20087;-66
2021/06/18 05:35:00;;;;;;;9.40;3.10;;;;;;;21.16;41.34;100419.00;4921671;29;20074;-68
2021/06/18 05:37:27;;;;;;;10.27;3.20;;;;;;;21.20;41.33;100414.41;4923852;29;20062;-66
2021/06/18 05:39:53;;;;;;;8.05;2.65;;;;;;;21.11;40.24;100400.53;4930309;29;20052;-69
2021/06/18 05:42:24;;;;;;;14.17;4.90;;;;;;;21.23;39.61;100411.00;4922961;29;22176;-66
2021/06/18 05:44:50;;;;;;;6.85;1.92;;;;;;;21.27;39.08;100417.50;4924824;29;20052;-65
2021/06/18 05:47:16;;;;;;;6.72;1.80;;;;;;;21.33;38.94;100418.16;4924282;29;20056;-66
2021/06/18 05:49:42;;;;;;;10.43;2.25;;;;;;;21.37;39.29;100413.53;4925334;29;20090;-65
2021/06/18 05:52:09;;;;;;;14.60;2.20;;;;;;;21.40;38.87;100412.88;4924418;29;20051;-65
2021/06/18 05:54:35;;;;;;;10.30;2.00;;;;;;;21.46;39.29;100408.75;4924052;29;20058;-65
2021/06/18 05:57:01;;;;;;;10.95;2.65;;;;;;;21.48;39.03;100413.97;4924551;29;20519;-65
2021/06/18 05:59:29;;;;;;;8.93;2.85;;;;;;;21.55;38.35;100408.72;4924290;29;20044;-65
2021/06/18 06:01:56;;;;;;;9.80;2.45;;;;;;;21.45;38.15;100415.47;4924119;29;20067;-67
2021/06/18 06:04:22;;;;;;;7.65;1.83;;;;;;;21.37;37.61;100424.66;4924001;29;20060;-65
2021/06/18 06:06:48;;;;;;;11.90;3.35;;;;;;;21.23;37.90;100417.34;4932065;29;20153;-69
2021/06/18 06:09:15;;;;;;;10.67;3.20;;;;;;;21.36;38.17;100414.69;4922548;29;20150;-67
2021/06/18 06:11:41;;;;;;;17.55;4.10;;;;;;;21.38;38.22;100415.97;4922929;29;20332;-67
2021/06/18 06:14:07;;;;;;;11.02;2.88;;;;;;;21.46;37.97;100408.75;4923625;29;20195;-65
2021/06/18 06:16:35;;;;;;;10.75;2.67;;;;;;;21.59;38.47;100412.47;4923939;29;20043;-66
2021/06/18 06:19:03;;;;;;;17.95;3.13;;;;;;;21.67;38.71;100411.63;4923848;29;20725;-68
2021/06/18 06:21:29;;;;;;;9.13;2.33;;;;;;;21.68;38.56;100416.03;4929805;29;20052;-66
2021/06/18 06:23:56;;;;;;;11.05;2.60;;;;;;;21.81;38.88;100414.19;4925785;29;20138;-67
2021/06/18 06:26:22;;;;;;;29.13;5.23;;;;;;;21.84;38.68;100407.09;4938914;29;20040;-67
2021/06/18 06:28:48;;;;;;;13.27;3.53;;;;;;;21.90;38.42;100410.50;4923423;29;20072;-65
2021/06/18 06:31:15;;;;;;;16.07;3.30;;;;;;;21.99;37.73;100416.84;4925047;28;20051;-65
2021/06/18 06:33:43;;;;;;;9.57;2.60;;;;;;;22.00;37.33;100415.69;4924805;29;20060;-64
2021/06/18 06:36:09;;;;;;;10.00;3.00;;;;;;;22.05;37.57;100412.69;4925102;29;20048;-63
2021/06/18 06:38:35;;;;;;;11.17;3.97;;;;;;;22.07;36.84;100418.75;4924583;29;20047;-65
2021/06/18 06:41:02;;;;;;;13.65;3.95;;;;;;;22.10;37.13;100417.25;4924478;29;20308;-66
2021/06/18 06:43:28;;;;;;;10.93;3.40;;;;;;;22.10;36.70;100414.47;4921491;29;20071;-67
2021/06/18 06:45:54;;;;;;;15.23;2.90;;;;;;;22.14;36.88;100418.22;4923554;29;20058;-65
2021/06/18 06:48:20;;;;;;;14.40;3.30;;;;;;;22.18;37.24;100421.13;4921807;29;20811;-64
2021/06/18 06:50:49;;;;;;;12.88;3.00;;;;;;;22.22;36.96;100411.78;4923371;29;20066;-65
2021/06/18 06:53:15;;;;;;;11.57;2.35;;;;;;;22.13;36.95;100401.84;4922953;29;20104;-64
2021/06/18 06:55:41;;;;;;;12.68;3.13;;;;;;;22.19;36.50;100406.88;4922780;29;20051;-65
2021/06/18 06:58:08;;;;;;;10.73;3.00;;;;;;;22.19;36.34;100412.47;4923125;29;20059;-64
2021/06/18 07:00:34;;;;;;;11.10;2.65;;;;;;;22.32;36.79;100407.75;4921699;29;20413;-65
2021/06/18 07:03:01;;;;;;;23.15;2.80;;;;;;;22.42;36.72;100414.88;4922920;29;20059;-65
2021/06/18 07:05:28;;;;;;;22.17;6.27;;;;;;;22.52;37.46;100413.69;4922090;29;20063;-63
2021/06/18 07:07:55;;;;;;;11.07;3.72;;;;;;;22.57;37.36;100418.22;4921953;29;20303;-64
2021/06/18 07:10:22;;;;;;;14.43;6.07;;;;;;;22.57;36.93;100421.84;4921958;29;20500;-66
2021/06/18 07:12:48;;;;;;;8.70;2.88;;;;;;;22.59;36.60;100425.09;4922396;29;20051;-66
2021/06/18 07:15:14;;;;;;;11.73;5.27;;;;;;;22.63;37.07;100422.44;4921358;29;20047;-65
2021/06/18 07:17:41;;;;;;;11.45;2.38;;;;;;;22.69;36.31;100421.06;4922638;29;20512;-65
2021/06/18 07:20:08;;;;;;;3.57;1.47;;;;;;;22.36;34.84;100408.69;4921820;29;20070;-67
2021/06/18 07:22:35;;;;;;;8.80;2.05;;;;;;;22.50;35.31;100422.41;4922299;29;20052;-66
2021/06/18 07:25:03;;;;;;;10.55;2.13;;;;;;;22.48;35.97;100424.72;4922432;29;20147;-66
2021/06/18 07:27:30;;;;;;;14.40;2.88;;;;;;;22.64;36.24;100422.09;4923159;29;20043;-63
2021/06/18 07:29:56;;;;;;;10.73;2.42;;;;;;;22.73;36.60;100424.00;4924636;29;20056;-63
2021/06/18 07:32:23;;;;;;;12.35;2.20;;;;;;;22.74;36.28;100417.28;4923285;29;20516;-64
2021/06/18 07:34:49;;;;;;;8.35;2.25;;;;;;;22.84;36.24;100424.38;4921134;29;20048;-63
2021/06/18 07:37:16;;;;;;;7.95;1.85;;;;;;;22.80;36.26;100416.72;4924144;29;20079;-66
2021/06/18 07:39:42;;;;;;;7.78;1.80;;;;;;;22.91;36.15;100410.69;4924291;29;20052;-66
2021/06/18 07:42:10;;;;;;;11.95;3.85;;;;;;;22.95;36.75;100406.06;4923941;29;20464;-65
2021/06/18 07:44:38;;;;;;;7.57;2.20;;;;;;;22.97;36.80;100409.31;4923481;29;20083;-64
2021/06/18 07:47:05;;;;;;;10.48;2.60;;;;;;;23.03;35.69;100407.13;4921334;28;20043;-66
2021/06/18 07:49:31;;;;;;;7.68;2.20;;;;;;;23.08;35.84;100409.69;4922957;29;20463;-66
2021/06/18 07:51:57;;;;;;;9.57;1.70;;;;;;;23.15;34.93;100420.28;4925400;28;20111;-66
2021/06/18 07:54:25;;;;;;;6.73;1.70;;;;;;;23.18;35.29;100408.44;4923550;29;20419;-66
2021/06/18 07:56:52;;;;;;;8.40;1.67;;;;;;;23.25;35.23;100408.66;4923248;29;20941;-66
2021/06/18 07:59:19;;;;;;;10.48;2.00;;;;;;;23.25;35.30;100410.66;4923099;29;20047;-64
2021/06/18 08:01:46;;;;;;;7.30;1.50;;;;;;;23.29;34.80;100411.59;4936536;29;20052;-70
2021/06/18 08:04:13;;;;;;;;;;;;;;;23.31;34.83;100415.69;4935615;28;20048;-68
2021/06/18 08:06:39;;;;;;;11.80;4.77;;;;;;;23.34;35.00;100403.81;4922808;29;19950;-68
2021/06/18 08:09:06;;;;;;;5.50;1.73;;;;;;;23.21;35.42;100382.63;4923770;29;20055;-67
2021/06/18 08:11:32;;;;;;;15.15;5.65;;;;;;;23.40;36.44;100403.59;4920812;29;20505;-68
2021/06/18 08:13:59;;;;;;;18.42;7.78;;;;;;;23.43;36.90;100400.13;4925106;29;20075;-64
2021/06/18 08:16:26;;;;;;;14.43;4.00;;;;;;;23.48;36.14;100402.69;4921740;29;20592;-65
2021/06/18 08:18:53;;;;;;;8.90;2.08;;;;;;;23.50;35.72;100403.13;4922865;29;20167;-62
2021/06/18 08:21:20;;;;;;;8.70;2.10;;;;;;;23.37;35.46;100378.03;4922930;29;20055;-65
2021/06/18 08:23:46;;;;;;;12.52;1.80;;;;;;;23.50;35.52;100391.97;4923261;29;20303;-65
2021/06/18 08:26:13;;;;;;;6.30;1.90;;;;;;;23.55;35.13;100394.53;4919354;29;20056;-63
2021/06/18 08:28:39;;;;;;;8.40;1.92;;;;;;;23.56;35.19;100398.16;4919270;29;20044;-64
2021/06/18 08:31:06;;;;;;;6.88;2.17;;;;;;;23.62;35.19;100386.41;4922002;29;20069;-64
2021/06/18 08:33:34;;;;;;;3.90;1.42;;;;;;;23.60;35.38;100390.69;4920462;29;20083;-65
2021/06/18 08:36:03;;;;;;;9.90;3.15;;;;;;;23.64;35.39;100391.63;4921643;29;20050;-65
2021/06/18 08:38:29;;;;;;;11.90;2.28;;;;;;;23.63;34.67;100390.00;4922228;29;20127;-65
2021/06/18 08:40:56;;;;;;;11.45;3.95;;;;;;;23.69;35.23;100390.56;4923437;29;20090;-64
2021/06/18 08:43:23;;;;;;;8.17;3.00;;;;;;;23.65;34.65;100396.06;4920854;28;20099;-64
2021/06/18 08:45:49;;;;;;;8.23;1.73;;;;;;;23.67;33.85;100396.53;4922550;28;20060;-65
2021/06/18 08:48:16;;;;;;;8.30;2.53;;;;;;;23.71;34.20;100393.81;4929125;29;20048;-66
2021/06/18 08:50:45;;;;;;;14.43;3.20;;;;;;;23.80;34.19;100388.94;4923362;29;20469;-67
2021/06/18 08:53:13;;;;;;;8.07;3.33;;;;;;;23.86;34.37;100389.50;4923481;29;20359;-65
2021/06/18 08:55:39;;;;;;;6.40;2.00;;;;;;;23.89;34.47;100392.44;4920922;29;20127;-64
2021/06/18 08:58:06;;;;;;;8.57;4.18;;;;;;;23.90;34.07;100387.63;4923298;29;20524;-63
2021/06/18 09:00:33;;;;;;;7.03;1.83;;;;;;;23.89;32.99;100386.84;4936098;29;20570;-67
2021/06/18 09:02:59;;;;;;;8.60;3.37;;;;;;;23.78;34.09;100368.94;4921769;29;20127;-65
2021/06/18 09:05:27;;;;;;;7.55;2.75;;;;;;;23.82;33.99;100378.22;4921393;29;20419;-65
2021/06/18 09:07:58;;;;;;;12.43;4.80;;;;;;;23.94;34.19;100389.38;4919921;29;20107;-66
2021/06/18 09:10:29;;;;;;;11.23;4.55;;;;;;;24.02;34.64;100389.59;4921286;29;20139;-63
2021/06/18 09:13:11;;;;;;;7.93;2.75;;;;;;;24.08;34.15;100385.44;4919021;29;20147;-63
2021/06/18 09:15:39;;;;;;;4.20;1.90;;;;;;;24.13;34.53;100381.59;4936472;29;20044;-66
2021/06/18 09:18:34;;;;;;;5.90;1.80;;;;;;;24.16;34.65;100378.09;4920094;29;20043;-64
2021/06/18 09:21:24;;;;;;;13.75;3.50;;;;;;;24.18;33.91;100365.38;4921369;29;20071;-66
2021/06/18 09:23:55;;;;;;;10.52;1.80;;;;;;;24.21;34.04;100372.22;4920415;29;20186;-66
2021/06/18 09:26:30;;;;;;;8.00;2.10;;;;;;;24.25;34.33;100369.56;4920998;29;20083;-66
2021/06/18 09:28:59;;;;;;;8.68;1.63;;;;;;;24.32;33.98;100369.75;4920573;29;20541;-67
2021/06/18 09:31:28;;;;;;;12.23;5.60;;;;;;;24.31;34.16;100363.38;4909010;29;20052;-67
2021/06/18 09:33:55;;;;;;;21.00;2.47;;;;;;;24.32;34.13;100367.78;4920044;29;20419;-67
2021/06/18 09:36:21;;;;;;;;;;;;;;;24.36;33.87;100367.91;4923251;29;20078;-69
2021/06/18 09:38:51;;;;;;;5.93;1.63;;;;;;;24.40;33.74;100373.56;4923753;29;20033;-68
2021/06/18 09:41:35;;;;;;;10.23;1.85;;;;;;;24.44;33.35;100357.72;4918386;29;20421;-68
2021/06/18 09:44:03;;;;;;;14.43;5.00;;;;;;;24.50;33.43;100367.47;4919498;28;20091;-69
2021/06/18 09:46:44;;;;;;;9.25;1.65;;;;;;;24.43;32.31;100362.50;4919160;29;20460;-69
2021/06/18 09:49:14;;;;;;;8.43;1.70;;;;;;;24.17;33.19;100346.19;4918301;29;20044;-68
2021/06/18 09:51:56;;;;;;;13.20;2.30;;;;;;;24.36;33.96;100353.94;4919632;29;20048;-70
2021/06/18 09:54:23;;;;;;;10.35;6.40;;;;;;;24.47;34.22;100346.63;4920475;29;20052;-67
2021/06/18 09:57:03;;;;;;;13.95;2.35;;;;;;;24.47;34.16;100345.84;4921430;29;20617;-66
2021/06/18 09:59:29;;;;;;;8.60;1.70;;;;;;;24.49;33.90;100343.50;4921035;29;20047;-67
2021/06/18 10:01:56;;;;;;;11.47;2.97;;;;;;;24.56;34.54;100345.69;4922409;29;20075;-68
2021/06/18 10:04:25;;;;;;;8.05;3.22;;;;;;;24.63;34.20;100351.44;4922547;29;20075;-66
2021/06/18 10:06:51;;;;;;;15.10;7.97;;;;;;;24.68;35.08;100350.38;4921301;29;20452;-67
2021/06/18 10:09:18;;;;;;;19.98;5.78;;;;;;;24.66;34.40;100353.53;4921416;29;20048;-69
2021/06/18 10:11:47;;;;;;;8.40;3.58;;;;;;;24.62;33.85;100344.22;4921760;28;20047;-69
2021/06/18 10:14:15;;;;;;;7.97;2.70;;;;;;;24.36;34.04;100345.53;4937540;29;20059;-70
2021/06/18 10:16:41;;;;;;;13.88;4.63;;;;;;;24.41;34.17;100341.66;4922495;29;20155;-69
2021/06/18 10:19:08;;;;;;;13.18;6.38;;;;;;;24.58;34.33;100341.34;4922653;29;20055;-69
2021/06/18 10:21:46;;;;;;;9.48;4.55;;;;;;;24.53;33.87;100319.25;4923718;29;20062;-68
2021/06/18 10:24:15;;;;;;;10.95;1.95;;;;;;;24.71;33.79;100330.91;4924774;29;20134;-69
2021/06/18 10:26:47;;;;;;;7.45;2.60;;;;;;;24.73;33.45;100322.16;4921202;29;20142;-67
2021/06/18 10:29:30;;;;;;;10.70;3.67;;;;;;;24.76;34.46;100330.66;4923421;29;20051;-69
2021/06/18 10:31:57;;;;;;;14.00;6.75;;;;;;;24.81;34.04;100321.22;4924479;29;20074;-68
2021/06/18 10:34:40;;;;;;;12.98;2.00;;;;;;;24.93;33.03;100323.09;4923912;29;20047;-68
2021/06/18 10:37:18;;;;;;;10.95;1.90;;;;;;;24.92;33.35;100313.91;4923506;29;20048;-66
2021/06/18 10:39:50;;;;;;;17.63;10.90;;;;;;;24.92;33.69;100315.88;4923179;29;20047;-69
2021/06/18 10:42:17;;;;;;;9.38;2.58;;;;;;;24.95;32.89;100311.56;4923998;29;20044;-70
2021/06/18 10:44:52;;;;;;;12.30;2.83;;;;;;;24.88;33.66;100306.59;4924261;29;20048;-69
2021/06/18 10:47:55;;;;;;;13.38;5.85;;;;;;;24.98;33.92;100310.84;4925507;29;20044;-66
2021/06/18 10:50:49;;;;;;;10.73;2.05;;;;;;;25.03;32.96;100313.34;4926550;29;20091;-68
2021/06/18 10:53:21;;;;;;;16.60;11.32;;;;;;;24.95;33.85;100314.38;4924513;29;20052;-67
2021/06/18 10:55:48;;;;;;;7.20;1.85;;;;;;;24.89;33.03;100316.63;4926027;28;20048;-69
2021/06/18 10:58:14;;;;;;;6.78;1.80;;;;;;;25.00;32.71;100308.50;4925646;29;20204;-70
2021/06/18 11:00:42;;;;;;;8.63;2.80;;;;;;;25.05;33.21;100311.84;4926133;28;20155;-69
2021/06/18 11:03:08;;;;;;;6.22;2.35;;;;;;;25.02;33.79;100306.97;4914431;29;20362;-69
2021/06/18 11:05:37;;;;;;;10.13;2.22;;;;;;;24.92;34.16;100288.75;4926346;29;20063;-67
2021/06/18 11:08:26;;;;;;;5.60;1.80;;;;;;;25.09;34.79;100308.31;4925341;29;20135;-67
2021/06/18 11:10:57;;;;;;;14.93;5.60;;;;;;;25.13;33.82;100306.41;4923951;29;20054;-65
2021/06/18 11:13:24;;;;;;;5.82;1.90;;;;;;;25.12;33.86;100296.38;4931291;29;20202;-66
2021/06/18 11:15:52;;;;;;;;;;;;;;;25.17;33.93;100299.72;4925841;29;20051;-71
2021/06/18 11:18:31;;;;;;;15.63;2.72;;;;;;;25.21;33.46;100299.81;4925063;29;20010;-67
2021/06/18 11:21:02;;;;;;;17.15;11.23;;;;;;;25.09;34.50;100288.72;4924776;28;20067;-68
2021/06/18 11:23:35;;;;;;;3.88;1.45;;;;;;;24.76;34.25;100285.94;4923669;29;20091;-68
2021/06/18 11:26:09;;;;;;;9.27;1.98;;;;;;;24.88;34.13;100292.63;4923936;29;20054;-67